Time;durP1;ratioP1;P1;durP2;ratioP2;P2;SDS_P1;SDS_P2;PMS_P1;PMS_P2;Temp;Humidity;BMP_temperature;BMP_pressure;BME280_temperature;BME280_humidity;BME280_pressure;Samples;Min_cycle;Max_cycle;Signal;HPM_P1;HPM_P2
2023/07/20 00:00:00;;;;;;;25.58;6.85;;;26.50;94.90;;;;;;5091697;28;20407;-52
2023/07/20 00:03:16;;;;;;;20.13;6.78;;;26.50;95.00;;;;;;5090430;28;20051;-56
2023/07/20 00:06:25;;;;;;;20.48;7.15;;;26.50;95.40;;;;;;5091785;28;20051;-53
2023/07/20 00:09:29;;;;;;;17.88;6.63;;;26.50;95.60;;;;;;5091541;28;20043;-55
2023/07/20 00:12:33;;;;;;;14.60;6.50;;;26.50;95.70;;;;;;5091437;28;20046;-57
2023/07/20 00:15:38;;;;;;;16.17;7.20;;;26.40;96.00;;;;;;5091680;28;20050;-53
2023/07/20 00:18:42;;;;;;;29.38;7.82;;;26.40;96.50;;;;;;5091453;28;20043;-58
2023/07/20 00:21:46;;;;;;;20.13;7.75;;;26.30;97.00;;;;;;5091121;28;20047;-54
2023/07/20 00:24:50;;;;;;;18.98;6.78;;;26.30;97.50;;;;;;5091598;28;20047;-56
2023/07/20 00:27:54;;;;;;;25.15;7.45;;;26.30;97.80;;;;;;5091193;28;20501;-56
2023/07/20 00:31:00;;;;;;;24.08;7.03;;;26.30;97.90;;;;;;5091078;28;20047;-56
2023/07/20 00:34:05;;;;;;;17.65;6.68;;;26.30;98.20;;;;;;5078537;28;20397;-55
2023/07/20 00:37:09;;;;;;;21.52;7.40;;;26.30;98.40;;;;;;5078235;28;20055;-57
2023/07/20 00:40:13;;;;;;;20.27;7.25;;;26.30;98.80;;;;;;5077956;28;20050;-56
2023/07/20 00:43:18;;;;;;;21.70;6.85;;;26.30;99.10;;;;;;5077937;28;20153;-55
2023/07/20 00:46:26;;;;;;;21.00;7.10;;;26.20;99.40;;;;;;5078023;28;20036;-53
2023/07/20 00:49:31;;;;;;;25.95;7.15;;;26.10;99.80;;;;;;5090623;28;20071;-56
2023/07/20 00:52:39;;;;;;;24.15;7.97;;;25.60;99.90;;;;;;5077742;28;20517;-57
2023/07/20 00:55:43;;;;;;;19.90;7.88;;;25.50;99.90;;;;;;5078449;28;20047;-52
2023/07/20 00:58:47;;;;;;;17.85;6.80;;;25.10;99.90;;;;;;5078265;28;20051;-57
2023/07/20 01:01:51;;;;;;;29.42;8.25;;;24.70;99.90;;;;;;5077526;28;20529;-55
2023/07/20 01:04:55;;;;;;;21.17;7.70;;;24.50;99.90;;;;;;5090593;28;20334;-56
2023/07/20 01:08:46;;;;;;;23.10;7.20;;;24.00;99.90;;;;;;5090476;28;20604;-52
2023/07/20 01:12:14;;;;;;;29.20;8.07;;;24.00;99.90;;;;;;5077325;28;20039;-56
2023/07/20 01:15:19;;;;;;;20.02;7.10;;;24.10;99.90;;;;;;5090044;28;20047;-53
2023/07/20 01:18:23;;;;;;;24.45;7.20;;;24.30;99.90;;;;;;5077460;28;20083;-54
2023/07/20 01:21:38;;;;;;;22.15;7.75;;;24.30;99.90;;;;;;5076972;28;20466;-54
2023/07/20 01:25:21;;;;;;;25.70;7.63;;;24.40;99.90;;;;;;5090152;28;20039;-55
2023/07/20 01:28:25;;;;;;;22.73;6.97;;;24.30;99.90;;;;;;5090363;28;20051;-54
2023/07/20 01:31:32;;;;;;;19.48;7.40;;;24.40;99.90;;;;;;5089669;28;20039;-55
2023/07/20 01:34:39;;;;;;;23.70;7.63;;;24.50;99.90;;;;;;5090296;28;20039;-55
2023/07/20 01:37:46;;;;;;;28.90;8.18;;;24.70;99.90;;;;;;5090109;28;20043;-57
2023/07/20 01:40:51;;;;;;;24.30;7.53;;;24.80;99.90;;;;;;5089539;28;20039;-57
2023/07/20 01:44:02;;;;;;;22.65;7.43;;;24.90;99.90;;;;;;5090352;28;20039;-53
2023/07/20 01:47:06;;;;;;;25.15;7.93;;;24.80;99.90;;;;;;5090016;28;20056;-54
2023/07/20 01:50:10;;;;;;;26.85;8.88;;;24.90;99.90;;;;;;5077753;28;20043;-57
2023/07/20 01:53:15;;;;;;;23.67;8.98;;;25.00;99.90;;;;;;5077212;28;20055;-57
2023/07/20 01:56:19;;;;;;;29.20;7.97;;;25.00;99.90;;;;;;5090104;28;20406;-56
2023/07/20 01:59:23;;;;;;;23.42;7.90;;;25.10;99.90;;;;;;5077244;28;20051;-55
2023/07/20 02:02:28;;;;;;;19.25;8.35;;;25.10;99.90;;;;;;5077110;28;20537;-55
2023/07/20 02:05:32;;;;;;;20.00;7.88;;;25.20;99.90;;;;;;5090156;28;20506;-52
2023/07/20 02:08:36;;;;;;;29.65;9.32;;;25.10;99.90;;;;;;5090167;28;20046;-54
2023/07/20 02:11:40;;;;;;;19.75;8.80;;;24.90;99.90;;;;;;5077115;28;20047;-58
2023/07/20 02:14:44;;;;;;;25.02;7.28;;;24.80;99.90;;;;;;5089916;28;20502;-59
2023/07/20 02:17:48;;;;;;;26.17;7.45;;;24.60;99.90;;;;;;5077004;28;20047;-54
2023/07/20 02:20:54;;;;;;;23.42;8.23;;;24.70;99.90;;;;;;5076843;28;20035;-53
2023/07/20 02:23:57;;;;;;;21.05;7.53;;;24.80;99.90;;;;;;5089394;28;20039;-52
2023/07/20 02:27:01;;;;;;;21.20;7.57;;;24.80;99.90;;;;;;5078614;28;20042;-56
2023/07/20 02:30:06;;;;;;;22.95;8.48;;;24.80;99.90;;;;;;5093398;28;20035;-56
2023/07/20 02:33:11;;;;;;;26.48;8.55;;;24.80;99.90;;;;;;5092544;28;20047;-55
2023/07/20 02:36:16;;;;;;;23.75;8.95;;;24.80;99.90;;;;;;5093311;28;20058;-55
2023/07/20 02:39:21;;;;;;;25.50;7.10;;;24.80;99.90;;;;;;5093029;28;20043;-55
2023/07/20 02:42:26;;;;;;;15.48;7.35;;;24.50;99.90;;;;;;5080022;28;20043;-56
2023/07/20 02:45:30;;;;;;;24.40;8.10;;;24.40;99.90;;;;;;5093137;28;20047;-54
2023/07/20 02:48:35;;;;;;;22.17;8.20;;;24.30;99.90;;;;;;5093097;28;20047;-55
2023/07/20 02:51:39;;;;;;;21.60;8.52;;;24.10;99.90;;;;;;5079700;28;20074;-54
2023/07/20 02:54:43;;;;;;;31.60;8.93;;;23.90;99.90;;;;;;5080385;28;20576;-57
2023/07/20 02:57:47;;;;;;;22.88;9.60;;;23.90;99.90;;;;;;5092536;28;20047;-57
2023/07/20 03:00:51;;;;;;;21.05;9.75;;;23.90;99.90;;;;;;5080220;28;20674;-56
2023/07/20 03:03:56;;;;;;;29.17;9.60;;;24.10;99.90;;;;;;5080029;28;20051;-54
2023/07/20 03:07:00;;;;;;;26.40;9.63;;;24.30;99.90;;;;;;5092620;28;20047;-56
2023/07/20 03:10:07;;;;;;;26.05;9.70;;;24.40;99.90;;;;;;5092627;28;20410;-54
2023/07/20 03:13:11;;;;;;;23.42;9.93;;;24.50;99.90;;;;;;5091196;28;20051;-55
2023/07/20 03:16:18;;;;;;;22.58;9.20;;;24.60;99.90;;;;;;5079805;28;20047;-52
2023/07/20 03:19:23;;;;;;;28.52;8.63;;;24.60;99.90;;;;;;5079659;28;20047;-56
2023/07/20 03:22:27;;;;;;;25.27;8.95;;;24.30;99.90;;;;;;5079376;28;20506;-55
2023/07/20 03:25:31;;;;;;;23.42;8.90;;;24.20;99.90;;;;;;5079649;28;20035;-54
2023/07/20 03:28:38;;;;;;;18.23;8.93;;;24.00;99.90;;;;;;5079884;28;20043;-56
2023/07/20 03:31:42;;;;;;;23.42;9.88;;;23.80;99.90;;;;;;5091934;28;20050;-55
2023/07/20 03:34:46;;;;;;;30.92;9.98;;;23.90;99.90;;;;;;5068178;28;20098;-52
2023/07/20 03:37:52;;;;;;;21.95;9.77;;;23.90;99.90;;;;;;5079244;28;20055;-54
2023/07/20 03:40:58;;;;;;;23.73;10.02;;;24.00;99.90;;;;;;5092205;28;20051;-56
2023/07/20 03:44:02;;;;;;;23.38;9.32;;;24.00;99.90;;;;;;5079107;28;20043;-55
2023/07/20 03:47:06;;;;;;;28.92;9.73;;;23.80;99.90;;;;;;5079198;28;20047;-53
2023/07/20 03:50:11;;;;;;;23.38;9.35;;;23.50;99.90;;;;;;5079375;28;20057;-55
2023/07/20 03:53:15;;;;;;;27.15;9.40;;;23.30;99.90;;;;;;5078522;28;20422;-54
2023/07/20 03:56:19;;;;;;;19.73;8.90;;;23.40;99.90;;;;;;5091612;28;20397;-55
2023/07/20 03:59:23;;;;;;;24.92;9.60;;;23.60;99.90;;;;;;5078813;28;20039;-56
2023/07/20 04:02:27;;;;;;;20.25;8.63;;;23.50;99.90;;;;;;5090914;28;20039;-53
2023/07/20 04:05:31;;;;;;;20.85;8.93;;;23.50;99.90;;;;;;5091628;28;20035;-58
2023/07/20 04:08:38;;;;;;;20.40;8.98;;;23.60;99.90;;;;;;5078879;28;20055;-55
2023/07/20 04:11:42;;;;;;;26.95;9.18;;;23.70;99.90;;;;;;5078477;28;20047;-54
2023/07/20 04:14:47;;;;;;;22.42;8.95;;;23.80;99.90;;;;;;5078690;28;20517;-53
2023/07/20 04:17:51;;;;;;;34.33;9.82;;;23.80;99.90;;;;;;5091096;28;20043;-56
2023/07/20 04:20:54;;;;;;;20.02;8.48;;;23.60;99.90;;;;;;5091318;28;20402;-57
2023/07/20 04:23:58;;;;;;;22.02;8.95;;;23.40;99.90;;;;;;5078337;28;20399;-54
2023/07/20 04:27:02;;;;;;;30.48;9.88;;;23.20;99.90;;;;;;5078540;28;20054;-56
2023/07/20 04:30:09;;;;;;;24.23;9.02;;;23.20;99.90;;;;;;5091016;28;20047;-56
2023/07/20 04:33:13;;;;;;;27.02;9.45;;;23.40;99.90;;;;;;5078068;28;20743;-55
2023/07/20 04:36:19;;;;;;;21.00;8.30;;;23.50;99.90;;;;;;5066672;28;20055;-58
2023/07/20 04:39:23;;;;;;;20.42;8.73;;;23.60;99.90;;;;;;5078189;28;20410;-56
2023/07/20 04:42:27;;;;;;;23.80;8.70;;;23.80;99.90;;;;;;5077951;28;20042;-58
2023/07/20 04:45:32;;;;;;;25.40;9.15;;;23.90;99.90;;;;;;5078279;28;20414;-58
2023/07/20 04:48:36;;;;;;;19.23;9.02;;;24.60;99.90;;;;;;5077842;28;20043;-53
2023/07/20 04:51:40;;;;;;;17.20;8.35;;;25.50;99.90;;;;;;5090294;28;20062;-54
2023/07/20 04:54:45;;;;;;;25.20;9.50;;;26.40;99.90;;;;;;5078074;28;20506;-55
2023/07/20 04:57:50;;;;;;;31.13;9.18;;;27.00;99.90;;;;;;5092212;22;20414;-50
2023/07/20 05:00:54;;;;;;;18.52;8.07;;;27.10;99.90;;;;;;5081508;28;20035;-49
2023/07/20 05:03:58;;;;;;;19.67;9.02;;;27.50;99.90;;;;;;5089754;28;20059;-51
2023/07/20 05:07:02;;;;;;;25.50;10.57;;;26.40;99.90;;;;;;5084140;28;20409;-49
2023/07/20 05:10:07;;;;;;;30.73;9.15;;;26.00;99.90;;;;;;5089955;28;20429;-53
2023/07/20 05:13:11;;;;;;;19.67;8.18;;;25.90;99.90;;;;;;5083827;28;20051;-51
2023/07/20 05:16:15;;;;;;;21.90;8.77;;;25.90;99.90;;;;;;5089348;28;20058;-54
2023/07/20 05:19:19;;;;;;;26.30;8.85;;;26.10;99.90;;;;;;5089068;28;20043;-53
2023/07/20 05:22:24;;;;;;;24.13;8.18;;;26.90;99.90;;;;;;5089906;28;20047;-51
2023/07/20 05:25:28;;;;;;;25.05;8.57;;;27.30;99.90;;;;;;5089719;28;20398;-52
2023/07/20 05:28:32;;;;;;;25.33;9.13;;;27.80;99.90;;;;;;5089995;28;20047;-53
2023/07/20 05:31:36;;;;;;;33.30;10.82;;;27.60;99.90;;;;;;5089515;28;20043;-54
2023/07/20 05:34:40;;;;;;;27.90;11.95;;;26.90;99.90;;;;;;5088997;28;20059;-54
2023/07/20 05:37:45;;;;;;;27.55;10.77;;;26.40;99.90;;;;;;5089740;28;20046;-54
2023/07/20 05:40:49;;;;;;;20.20;9.32;;;26.40;99.90;;;;;;5089715;28;20513;-56
2023/07/20 05:43:53;;;;;;;25.23;9.10;;;26.60;99.90;;;;;;5089496;28;20039;-52
2023/07/20 05:46:57;;;;;;;23.65;8.27;;;27.50;99.90;;;;;;5089665;28;20043;-51
2023/07/20 05:50:03;;;;;;;28.10;9.98;;;28.10;99.90;;;;;;5089610;28;20509;-52
2023/07/20 05:53:07;;;;;;;23.20;9.43;;;28.00;99.90;;;;;;5095357;28;20425;-53
2023/07/20 05:56:11;;;;;;;26.67;9.20;;;27.40;99.90;;;;;;5089378;28;20403;-54
2023/07/20 05:59:15;;;;;;;21.75;9.05;;;27.80;99.90;;;;;;5089192;28;20542;-54
2023/07/20 06:02:19;;;;;;;25.20;8.25;;;28.70;99.90;;;;;;5093439;28;20043;-49
2023/07/20 06:05:23;;;;;;;30.17;9.50;;;28.50;99.90;;;;;;5093464;28;20055;-53
2023/07/20 06:08:29;;;;;;;25.38;9.00;;;28.20;99.90;;;;;;5084770;28;20050;-53
2023/07/20 06:11:33;;;;;;;25.80;8.07;;;28.00;99.90;;;;;;5072966;28;20048;-50
2023/07/20 06:14:38;;;;;;;20.92;8.55;;;27.90;99.90;;;;;;5091438;28;20430;-52
2023/07/20 06:17:42;;;;;;;27.38;9.68;;;28.20;99.90;;;;;;5088359;28;20524;-50
2023/07/20 06:20:52;;;;;;;16.30;7.80;;;29.10;99.90;;;;;;5082782;28;20051;-50
2023/07/20 06:23:56;;;;;;;24.48;8.35;;;30.20;99.90;;;;;;5086609;28;20394;-53
2023/07/20 06:27:00;;;;;;;24.77;8.43;;;30.70;99.90;;;;;;5092338;28;20043;-54
2023/07/20 06:30:05;;;;;;;18.00;8.07;;;29.40;99.90;;;;;;5094002;28;20039;-50
2023/07/20 06:33:09;;;;;;;23.23;8.57;;;29.60;99.90;;;;;;5091717;28;20505;-50
2023/07/20 06:36:13;;;;;;;25.90;8.60;;;29.60;99.90;;;;;;5096009;28;20076;-50
2023/07/20 06:39:17;;;;;;;19.00;7.07;;;29.60;99.90;;;;;;5093632;28;20055;-53
2023/07/20 06:42:21;;;;;;;22.40;7.45;;;29.70;99.90;;;;;;5085894;28;20043;-52
2023/07/20 06:45:25;;;;;;;24.88;7.30;;;30.40;99.90;;;;;;5088249;28;20671;-54
2023/07/20 06:48:29;;;;;;;22.98;8.48;;;30.90;99.90;;;;;;5091237;28;20035;-51
2023/07/20 06:51:33;;;;;;;22.67;7.68;;;30.90;99.90;;;;;;5085433;28;20043;-52
2023/07/20 06:54:37;;;;;;;27.30;8.00;;;30.80;99.90;;;;;;5086677;28;20047;-56
2023/07/20 06:57:42;;;;;;;22.73;7.47;;;30.90;99.90;;;;;;5087047;28;20051;-56
2023/07/20 07:00:46;;;;;;;22.58;7.28;;;31.10;99.90;;;;;;5086402;28;20110;-55
2023/07/20 07:03:49;;;;;;;19.52;7.50;;;32.20;99.90;;;;;;5086415;28;20398;-55
2023/07/20 07:06:53;;;;;;;23.40;7.63;;;32.80;99.90;;;;;;5084490;28;20055;-53
2023/07/20 07:09:57;;;;;;;20.92;7.28;;;32.20;99.90;;;;;;5087560;28;20093;-53
2023/07/20 07:13:02;;;;;;;21.95;7.93;;;31.60;99.90;;;;;;5086659;28;20047;-54
2023/07/20 07:16:06;;;;;;;32.20;8.30;;;31.30;99.90;;;;;;5088547;28;20051;-55
2023/07/20 07:19:10;;;;;;;25.50;9.02;;;30.40;99.90;;;;;;5087141;28;20051;-51
2023/07/20 07:22:13;;;;;;;29.13;8.10;;;29.60;99.90;;;;;;5089637;28;20051;-53
2023/07/20 07:25:18;;;;;;;17.95;7.88;;;30.10;99.90;;;;;;5070728;28;20040;-54
2023/07/20 07:28:22;;;;;;;24.30;7.38;;;30.20;99.90;;;;;;5074639;28;20058;-55
2023/07/20 07:31:26;;;;;;;22.98;6.85;;;31.70;99.90;;;;;;5082213;28;20402;-55
2023/07/20 07:34:31;;;;;;;13.82;6.18;;;33.90;99.90;;;;;;5090005;28;20063;-55
2023/07/20 07:37:36;;;;;;;25.63;7.53;;;34.80;99.90;;;;;;5085593;28;20043;-53
2023/07/20 07:40:40;;;;;;;24.50;7.07;;;35.70;99.90;;;;;;5084592;28;20516;-50
2023/07/20 07:43:44;;;;;;;25.75;7.57;;;35.50;99.40;;;;;;5071350;28;20518;-56
2023/07/20 07:46:48;;;;;;;22.95;6.68;;;34.80;99.90;;;;;;5070614;28;20056;-57
2023/07/20 07:49:52;;;;;;;22.10;7.68;;;35.10;99.60;;;;;;5080855;28;20059;-53
2023/07/20 07:52:57;;;;;;;24.55;7.93;;;35.80;99.10;;;;;;5086192;28;20043;-52
2023/07/20 07:56:03;;;;;;;16.75;8.20;;;35.30;98.90;;;;;;5090709;28;20500;-51
2023/07/20 07:59:07;;;;;;;24.30;9.30;;;35.00;99.10;;;;;;5089033;28;20071;-54
2023/07/20 08:02:11;;;;;;;23.73;8.95;;;34.40;99.00;;;;;;5090436;28;20409;-52
2023/07/20 08:05:15;;;;;;;29.98;9.88;;;33.40;99.90;;;;;;5089654;28;20047;-52
2023/07/20 08:08:19;;;;;;;24.02;9.30;;;32.90;99.90;;;;;;5090010;28;20043;-53
2023/07/20 08:11:24;;;;;;;25.73;9.82;;;33.10;99.90;;;;;;5089257;28;20039;-51
2023/07/20 08:14:28;;;;;;;21.85;8.93;;;33.90;99.90;;;;;;5082741;28;20493;-51
2023/07/20 08:17:32;;;;;;;21.80;9.73;;;35.00;99.70;;;;;;5080984;28;20055;-52
2023/07/20 08:20:36;;;;;;;29.88;9.32;;;35.60;98.60;;;;;;5083613;28;20043;-51
2023/07/20 08:23:40;;;;;;;19.13;8.18;;;37.40;97.20;;;;;;5080627;28;20039;-52
2023/07/20 08:26:44;;;;;;;20.83;8.27;;;40.10;94.90;;;;;;5082062;28;20046;-52
2023/07/20 08:29:47;;;;;;;25.23;9.30;;;40.60;93.10;;;;;;5076968;28;20047;-54
2023/07/20 08:32:51;;;;;;;28.85;9.02;;;39.70;92.80;;;;;;5080555;28;20051;-54
2023/07/20 08:35:56;;;;;;;19.60;8.13;;;39.70;93.20;;;;;;5083641;28;20043;-56
2023/07/20 08:39:00;;;;;;;20.10;7.93;;;39.60;92.60;;;;;;5084656;28;20055;-56
2023/07/20 08:42:06;;;;;;;19.58;7.65;;;38.80;93.10;;;;;;5080430;28;20043;-52
2023/07/20 08:45:13;;;;;;;16.30;7.53;;;39.20;93.20;;;;;;5087535;28;20027;-55
2023/07/20 08:48:19;;;;;;;22.27;8.90;;;41.30;91.80;;;;;;5084268;28;20047;-55
2023/07/20 08:51:24;;;;;;;22.00;8.88;;;41.40;90.40;;;;;;5085157;28;20035;-57
2023/07/20 08:54:34;;;;;;;19.02;6.68;;;42.60;90.10;;;;;;5066496;28;20039;-54
2023/07/20 08:57:41;;;;;;;16.38;7.13;;;44.50;87.80;;;;;;5064142;28;20047;-57
2023/07/20 09:00:46;;;;;;;16.75;6.70;;;44.90;84.70;;;;;;5084516;28;20046;-50
2023/07/20 09:03:50;;;;;;;13.00;6.80;;;43.90;85.70;;;;;;5083469;28;20399;-57
2023/07/20 09:06:54;;;;;;;15.95;6.00;;;44.80;84.70;;;;;;5083421;28;20035;-56
2023/07/20 09:09:59;;;;;;;20.00;5.95;;;46.00;82.20;;;;;;5082809;28;20062;-52
2023/07/20 09:13:02;;;;;;;17.45;6.35;;;45.30;82.20;;;;;;5086242;28;20406;-52
2023/07/20 09:16:06;;;;;;;16.80;7.00;;;44.50;83.00;;;;;;5087677;28;20403;-54
2023/07/20 09:19:10;;;;;;;20.88;7.45;;;43.20;84.20;;;;;;5088563;28;20047;-57
2023/07/20 09:22:14;;;;;;;20.52;8.07;;;41.70;85.30;;;;;;5085422;28;20059;-54
2023/07/20 09:25:20;;;;;;;22.90;7.70;;;42.20;85.10;;;;;;5084245;28;20047;-55
2023/07/20 09:28:23;;;;;;;18.70;7.50;;;40.50;86.00;;;;;;5067380;28;20539;-52
2023/07/20 09:31:27;;;;;;;20.95;8.10;;;40.60;87.80;;;;;;5072370;28;20039;-53
2023/07/20 09:34:32;;;;;;;18.42;7.47;;;40.40;89.10;;;;;;5085534;28;20047;-56
2023/07/20 09:37:36;;;;;;;17.80;6.68;;;42.20;87.00;;;;;;5076051;28;20047;-59
2023/07/20 09:40:41;;;;;;;17.55;7.55;;;43.40;84.10;;;;;;5087761;28;20055;-50
2023/07/20 09:43:45;;;;;;;15.15;7.28;;;42.60;84.00;;;;;;5087570;28;20043;-57
2023/07/20 09:46:50;;;;;;;16.67;6.97;;;43.40;84.20;;;;;;5084079;28;20043;-52
2023/07/20 09:50:01;;;;;;;28.05;8.02;;;45.90;81.60;;;;;;5080966;28;20051;-55
2023/07/20 09:53:06;;;;;;;15.63;6.65;;;48.10;78.70;;;;;;5083505;28;20043;-57
2023/07/20 09:56:12;;;;;;;19.15;6.22;;;49.30;76.10;;;;;;5078052;28;20259;-56
2023/07/20 09:59:16;;;;;;;13.32;5.82;;;50.50;73.80;;;;;;5079095;28;20305;-53
2023/07/20 10:02:24;;;;;;;18.30;6.13;;;49.60;73.70;;;;;;5086381;28;20139;-54
2023/07/20 10:05:36;;;;;;;17.33;6.63;;;49.50;72.10;;;;;;5081071;28;20442;-54
2023/07/20 10:08:41;;;;;;;18.30;6.45;;;50.40;72.00;;;;;;5087848;28;20047;-53
2023/07/20 10:11:50;;;;;;;18.45;6.00;;;51.20;70.30;;;;;;5087310;28;20398;-51
2023/07/20 10:15:20;;;;;;;19.92;5.85;;;50.70;69.80;;;;;;5082828;28;20047;-51
2023/07/20 10:18:37;;;;;;;14.57;6.40;;;47.60;71.40;;;;;;5086965;28;20047;-55
2023/07/20 10:21:49;;;;;;;16.00;5.88;;;46.90;74.60;;;;;;5073004;28;20055;-55
2023/07/20 10:24:54;;;;;;;15.00;6.38;;;47.30;73.40;;;;;;5089267;28;20050;-51
2023/07/20 10:27:59;;;;;;;28.38;9.18;;;44.90;73.40;;;;;;5088524;28;20059;-54
2023/07/20 10:31:03;;;;;;;18.77;7.50;;;40.80;77.50;;;;;;5086131;28;20039;-53
2023/07/20 10:34:07;;;;;;;17.85;7.25;;;39.90;79.90;;;;;;5084413;28;20054;-55
2023/07/20 10:37:50;;;;;;;18.63;6.57;;;40.30;81.00;;;;;;5079665;28;20043;-56
2023/07/20 10:40:55;;;;;;;26.30;6.90;;;43.40;79.10;;;;;;5085266;28;20052;-52
2023/07/20 10:44:07;;;;;;;17.08;6.78;;;45.40;75.40;;;;;;5085146;28;20039;-55
2023/07/20 10:47:13;;;;;;;20.48;6.47;;;46.50;73.60;;;;;;5087484;28;20039;-55
2023/07/20 10:50:21;;;;;;;16.67;6.50;;;47.60;73.30;;;;;;5086893;28;20047;-53
2023/07/20 10:53:24;;;;;;;16.90;5.47;;;46.20;73.50;;;;;;5081581;28;20039;-52
2023/07/20 10:56:32;;;;;;;17.80;6.32;;;47.30;74.40;;;;;;5092013;28;20058;-54
2023/07/20 10:59:40;;;;;;;15.05;6.28;;;49.10;72.20;;;;;;5112204;22;20062;-64
2023/07/20 11:02:47;;;;;;;19.80;6.15;;;48.90;71.80;;;;;;5082333;28;20051;-63
2023/07/20 11:05:51;;;;;;;18.50;6.57;;;47.70;71.80;;;;;;5088517;28;20058;-62
2023/07/20 11:09:04;;;;;;;24.58;8.10;;;46.20;73.50;;;;;;5078773;28;20703;-63
2023/07/20 11:12:10;;;;;;;16.45;5.68;;;45.00;73.70;;;;;;5068525;28;20047;-63
2023/07/20 11:15:14;;;;;;;13.80;5.82;;;46.60;72.70;;;;;;5072116;28;20044;-64
2023/07/20 11:18:19;;;;;;;16.08;6.60;;;48.00;70.70;;;;;;5067254;28;20415;-62
2023/07/20 11:21:23;;;;;;;17.75;6.60;;;45.90;71.90;;;;;;5058522;28;20079;-61
2023/07/20 11:24:27;;;;;;;15.07;6.78;;;42.40;76.00;;;;;;5070794;28;20044;-64
2023/07/20 11:27:31;;;;;;;17.83;7.28;;;41.90;75.30;;;;;;5064823;28;20534;-63
2023/07/20 11:30:35;;;;;;;13.60;6.38;;;43.50;75.70;;;;;;5063432;28;20052;-63
2023/07/20 11:33:39;;;;;;;17.98;6.43;;;45.30;73.90;;;;;;5064679;28;20039;-60
2023/07/20 11:36:48;;;;;;;14.15;6.05;;;46.80;73.30;;;;;;5066560;28;20522;-63
2023/07/20 11:39:57;;;;;;;;;;;47.60;72.30;;;;;;5066807;28;20522;-61
2023/07/20 11:43:01;;;;;;;14.95;6.25;;;48.40;70.20;;;;;;5067327;28;19916;-61
2023/07/20 11:46:06;;;;;;;18.77;6.20;;;49.00;69.50;;;;;;5070188;28;20048;-63
2023/07/20 11:49:10;;;;;;;17.88;5.78;;;49.00;70.00;;;;;;5074020;28;20063;-64
2023/07/20 11:52:15;;;;;;;16.67;6.50;;;49.30;69.10;;;;;;5070780;28;20048;-63
2023/07/20 11:55:20;;;;;;;18.80;6.63;;;49.10;69.70;;;;;;5070103;28;20517;-60
2023/07/20 11:58:24;;;;;;;15.32;6.07;;;48.70;68.90;;;;;;5074846;28;20040;-62
2023/07/20 12:01:29;;;;;;;10.35;5.50;;;48.30;70.10;;;;;;5067434;28;20047;-64
2023/07/20 12:04:34;;;;;;;21.83;6.38;;;48.40;69.50;;;;;;5071627;28;20060;-59
2023/07/20 12:07:38;;;;;;;21.95;6.28;;;48.00;69.80;;;;;;5065002;28;20043;-60
2023/07/20 12:10:43;;;;;;;21.05;5.88;;;47.60;70.00;;;;;;5069621;28;20043;-62
2023/07/20 12:13:49;;;;;;;18.58;6.60;;;47.10;69.30;;;;;;5080390;28;20047;-62
2023/07/20 12:16:54;;;;;;;14.07;6.85;;;45.30;72.20;;;;;;5066647;28;20046;-64
2023/07/20 12:19:59;;;;;;;17.55;6.32;;;43.00;73.60;;;;;;5068437;28;20043;-58
2023/07/20 12:23:09;;;;;;;19.70;6.45;;;43.50;73.00;;;;;;5067264;28;20052;-61
2023/07/20 12:26:15;;;;;;;22.98;6.53;;;43.80;73.00;;;;;;5064198;28;20051;-63
2023/07/20 12:29:19;;;;;;;20.73;6.65;;;42.30;74.30;;;;;;5068218;28;20036;-63
2023/07/20 12:32:23;;;;;;;19.23;6.80;;;42.20;72.60;;;;;;5067540;28;20690;-61
2023/07/20 12:35:27;;;;;;;19.58;6.20;;;42.10;74.00;;;;;;5064682;28;20036;-59
2023/07/20 12:38:31;;;;;;;20.45;6.63;;;42.50;74.70;;;;;;5067367;28;20052;-62
2023/07/20 12:41:34;;;;;;;18.38;6.82;;;43.20;74.90;;;;;;5056276;28;20049;-63
2023/07/20 12:44:38;;;;;;;14.23;6.55;;;43.00;74.10;;;;;;5063331;28;20518;-62
2023/07/20 12:47:43;;;;;;;23.70;7.25;;;43.50;73.80;;;;;;5065904;28;20036;-59
2023/07/20 12:50:47;;;;;;;14.18;6.40;;;44.00;74.20;;;;;;5067510;28;20048;-62
2023/07/20 12:53:51;;;;;;;16.70;6.70;;;44.20;73.80;;;;;;5069503;28;20510;-63
2023/07/20 12:56:54;;;;;;;16.73;6.28;;;44.00;73.00;;;;;;5069005;28;20051;-62
2023/07/20 12:59:58;;;;;;;16.77;6.00;;;43.60;73.00;;;;;;5067604;28;20415;-63
2023/07/20 13:03:06;;;;;;;20.92;7.68;;;43.90;73.20;;;;;;5064181;28;20032;-62
2023/07/20 13:06:10;;;;;;;17.30;6.20;;;43.90;72.30;;;;;;5068269;28;20513;-61
2023/07/20 13:09:15;;;;;;;17.73;5.78;;;43.40;73.00;;;;;;5066151;28;20067;-62
2023/07/20 13:12:18;;;;;;;24.17;7.13;;;42.90;73.80;;;;;;5069483;28;20043;-62
2023/07/20 13:15:30;;;;;;;17.23;6.90;;;42.10;75.10;;;;;;5069657;28;20039;-61
2023/07/20 13:18:33;;;;;;;19.88;6.45;;;42.20;75.80;;;;;;5069279;28;20044;-60
2023/07/20 13:21:37;;;;;;;16.33;6.43;;;42.70;72.70;;;;;;5069233;28;20514;-62
2023/07/20 13:24:41;;;;;;;18.38;6.28;;;41.90;75.60;;;;;;5061897;28;20525;-61
2023/07/20 13:27:46;;;;;;;22.90;7.00;;;41.20;75.90;;;;;;5049627;28;20112;-61
2023/07/20 13:30:50;;;;;;;33.22;6.43;;;40.70;75.70;;;;;;5049466;28;20047;-62
2023/07/20 13:33:54;;;;;;;25.92;6.57;;;38.30;75.30;;;;;;5049942;28;20056;-62
2023/07/20 13:36:59;;;;;;;15.90;6.05;;;38.40;77.30;;;;;;5050327;28;20052;-62
2023/07/20 13:40:05;;;;;;;13.30;5.93;;;38.10;76.20;;;;;;5049858;28;20048;-62
2023/07/20 13:43:09;;;;;;;20.80;6.28;;;38.00;75.20;;;;;;5050597;28;20044;-59
2023/07/20 13:46:13;;;;;;;18.15;6.03;;;39.20;75.50;;;;;;5050851;28;20052;-60
2023/07/20 13:49:17;;;;;;;15.77;6.63;;;37.70;76.70;;;;;;5050658;28;20048;-63
2023/07/20 13:52:21;;;;;;;17.45;6.43;;;37.40;76.60;;;;;;5065426;28;20044;-61
2023/07/20 13:55:25;;;;;;;16.48;6.70;;;37.70;76.80;;;;;;5069368;28;20039;-61
2023/07/20 13:58:30;;;;;;;16.65;6.22;;;37.20;76.70;;;;;;5053785;28;20040;-62
2023/07/20 14:01:35;;;;;;;16.15;6.20;;;37.80;78.70;;;;;;5062154;28;20043;-60
2023/07/20 14:04:38;;;;;;;18.95;6.68;;;38.80;77.30;;;;;;5069812;28;20055;-61
2023/07/20 14:07:43;;;;;;;16.40;6.15;;;39.20;74.60;;;;;;5065296;28;20399;-62
2023/07/20 14:10:47;;;;;;;24.85;6.57;;;39.40;74.30;;;;;;5062255;28;20047;-62
2023/07/20 14:13:55;;;;;;;19.17;5.88;;;39.50;72.70;;;;;;5065288;28;20055;-60
2023/07/20 14:16:59;;;;;;;19.67;6.25;;;38.30;73.80;;;;;;5068640;28;20044;-61
2023/07/20 14:20:08;;;;;;;16.67;5.90;;;36.90;75.40;;;;;;5064925;28;20055;-62
2023/07/20 14:23:12;;;;;;;18.30;7.32;;;37.30;76.50;;;;;;5071167;28;20434;-63
2023/07/20 14:26:16;;;;;;;17.85;5.68;;;37.60;75.70;;;;;;5072987;28;20043;-60
2023/07/20 14:29:20;;;;;;;14.95;5.45;;;37.90;74.70;;;;;;5071152;28;20039;-63
2023/07/20 14:32:25;;;;;;;11.63;5.45;;;38.20;74.00;;;;;;5052269;28;20052;-61
2023/07/20 14:35:28;;;;;;;13.48;5.15;;;37.80;71.90;;;;;;5067488;28;20536;-62
2023/07/20 14:38:34;;;;;;;12.43;5.60;;;36.30;73.20;;;;;;5052531;28;20677;-60
2023/07/20 14:41:38;;;;;;;13.40;5.18;;;35.80;73.60;;;;;;5054868;28;20047;-62
2023/07/20 14:44:42;;;;;;;15.60;5.20;;;35.20;73.00;;;;;;5070756;28;20043;-61
2023/07/20 14:47:48;;;;;;;12.70;5.32;;;35.20;73.10;;;;;;5069695;28;20059;-61
2023/07/20 14:50:53;;;;;;;18.85;5.75;;;34.50;75.10;;;;;;5066498;28;20514;-61
2023/07/20 14:53:57;;;;;;;21.88;6.40;;;35.00;75.50;;;;;;5072003;28;20040;-58
2023/07/20 14:57:01;;;;;;;18.48;5.93;;;34.60;76.90;;;;;;5069820;28;20035;-61
2023/07/20 15:00:10;;;;;;;14.18;5.10;;;35.40;75.90;;;;;;5071154;28;20051;-62
2023/07/20 15:03:14;;;;;;;14.25;5.72;;;35.90;74.30;;;;;;5069740;28;20051;-61
2023/07/20 15:06:18;;;;;;;13.25;5.72;;;36.30;75.50;;;;;;5071975;28;20043;-61
2023/07/20 15:09:22;;;;;;;20.40;5.45;;;36.50;75.20;;;;;;5071012;28;20044;-60
2023/07/20 15:12:26;;;;;;;13.73;5.35;;;36.40;76.10;;;;;;5066749;28;20051;-60
2023/07/20 15:15:30;;;;;;;14.30;5.15;;;36.60;72.60;;;;;;5069621;28;20060;-61
2023/07/20 15:18:34;;;;;;;14.75;5.30;;;36.40;73.40;;;;;;5063059;28;20043;-62
2023/07/20 15:21:38;;;;;;;21.13;6.47;;;35.20;75.70;;;;;;5069465;28;20040;-60
2023/07/20 15:24:42;;;;;;;19.17;6.63;;;34.00;78.20;;;;;;5051800;28;20507;-61
2023/07/20 15:27:46;;;;;;;12.38;5.88;;;34.00;78.30;;;;;;5051521;28;20044;-62
2023/07/20 15:30:51;;;;;;;17.33;6.38;;;34.10;76.70;;;;;;5051080;28;20039;-63
2023/07/20 15:33:56;;;;;;;14.52;5.20;;;34.60;78.00;;;;;;5066222;28;20032;-60
2023/07/20 15:37:00;;;;;;;15.85;6.43;;;35.10;76.90;;;;;;5068503;28;20075;-59
2023/07/20 15:40:05;;;;;;;17.90;5.57;;;35.50;77.20;;;;;;5071199;28;20047;-61
2023/07/20 15:43:10;;;;;;;12.77;5.47;;;35.00;73.30;;;;;;5070534;28;20039;-62
2023/07/20 15:46:20;;;;;;;14.68;5.72;;;34.90;74.90;;;;;;5071007;28;20059;-62
2023/07/20 15:49:27;;;;;;;11.80;5.97;;;34.90;74.70;;;;;;5071141;28;20067;-62
2023/07/20 15:52:30;;;;;;;15.95;5.95;;;34.30;75.70;;;;;;5070899;28;20068;-60